Time;durP1;ratioP1;P1;durP2;ratioP2;P2;SDS_P1;SDS_P2;PMS_P1;PMS_P2;Temp;Humidity;BMP_temperature;BMP_pressure;BME280_temperature;BME280_humidity;BME280_pressure;Samples;Min_cycle;Max_cycle;Signal;HPM_P1;HPM_P2
2021/09/12 00:00:09;;;;;;;;;17.50;15.25;;;;;19.41;54.21;101626.97;5037795;28;45476;-84
2021/09/12 00:02:36;;;;;;;;;15.50;12.75;;;;;19.41;54.49;101632.22;5037322;28;45248;-83
2021/09/12 00:05:03;;;;;;;;;15.50;15.00;;;;;19.39;54.39;101623.44;5038323;28;45244;-83
2021/09/12 00:07:28;;;;;;;;;18.25;15.50;;;;;19.38;54.33;101623.41;5045699;28;45231;-84
2021/09/12 00:09:54;;;;;;;;;18.50;17.00;;;;;19.34;54.02;101633.84;5041920;28;45488;-84
2021/09/12 00:12:19;;;;;;;;;17.25;16.50;;;;;19.29;53.91;101634.59;5038523;28;45624;-83
2021/09/12 00:14:45;;;;;;;;;13.50;11.50;;;;;19.23;54.53;101639.72;5052986;28;45437;-83
2021/09/12 00:17:11;;;;;;;;;14.75;13.25;;;;;19.20;54.19;101630.03;5037466;28;45989;-82
2021/09/12 00:19:36;;;;;;;;;14.25;13.00;;;;;19.18;54.10;101635.22;5037624;28;45407;-83
2021/09/12 00:22:02;;;;;;;;;16.25;15.50;;;;;19.14;54.84;101630.78;5037205;28;45314;-84
2021/09/12 00:24:28;;;;;;;;;17.00;15.50;;;;;19.10;55.03;101628.94;5037625;28;45365;-84
2021/09/12 00:26:53;;;;;;;;;16.00;12.50;;;;;19.08;54.60;101632.38;5036940;28;45350;-84
2021/09/12 00:29:20;;;;;;;;;15.00;14.50;;;;;19.02;55.07;101639.25;5037191;28;45410;-83
2021/09/12 00:31:47;;;;;;;;;20.25;16.25;;;;;18.99;55.02;101627.78;5037158;28;45235;-83
2021/09/12 00:34:12;;;;;;;;;18.25;15.75;;;;;18.95;55.22;101629.47;5041560;28;45296;-83
2021/09/12 00:36:38;;;;;;;;;16.25;15.25;;;;;18.97;55.49;101632.13;5044335;28;45280;-84
2021/09/12 00:39:04;;;;;;;;;17.50;16.00;;;;;18.97;55.91;101629.50;5040960;28;45248;-83
2021/09/12 00:41:41;;;;;;;;;16.50;14.00;;;;;18.95;55.88;101634.72;5037311;28;45368;-84
2021/09/12 00:44:11;;;;;;;;;17.50;15.50;;;;;18.98;55.65;101634.81;5037748;28;45421;-84
2021/09/12 00:46:43;;;;;;;;;16.25;16.00;;;;;19.01;55.60;101626.09;5035821;28;47581;-84
2021/09/12 00:49:09;;;;;;;;;14.75;14.75;;;;;19.01;55.23;101626.09;5037174;28;45939;-83
2021/09/12 00:51:36;;;;;;;;;12.25;12.25;;;;;19.00;55.34;101619.97;5037037;28;45600;-83
2021/09/12 00:54:05;;;;;;;;;13.75;13.00;;;;;19.01;55.62;101626.97;5037048;28;45252;-83
2021/09/12 00:56:34;;;;;;;;;14.75;14.75;;;;;19.03;55.25;101614.78;5036703;28;45426;-84
2021/09/12 00:59:02;;;;;;;;;18.75;14.50;;;;;19.05;55.38;101617.47;5036663;28;45319;-84
2021/09/12 01:01:29;;;;;;;;;16.25;15.00;;;;;19.05;55.13;101612.22;5042579;28;45307;-84
2021/09/12 01:03:55;;;;;;;;;12.00;11.50;;;;;19.03;55.24;101613.91;5043009;28;45349;-84
2021/09/12 01:06:23;;;;;;;;;16.75;13.50;;;;;19.02;55.30;101617.38;5038176;28;45624;-84
2021/09/12 01:08:49;;;;;;;;;14.00;13.25;;;;;18.99;55.28;101615.59;5039603;28;45409;-85
2021/09/12 01:11:16;;;;;;;;;13.25;13.25;;;;;18.98;55.53;101615.53;5037652;28;45205;-84
2021/09/12 01:13:43;;;;;;;;;14.50;14.25;;;;;18.95;55.23;101618.09;5037014;28;45484;-81
2021/09/12 01:16:14;;;;;;;;;15.50;13.75;;;;;18.93;55.49;101602.31;5036602;28;45362;-84
2021/09/12 01:18:40;;;;;;;;;15.75;15.75;;;;;18.92;55.34;101612.75;5036058;28;45320;-83
2021/09/12 01:21:09;;;;;;;;;17.25;16.00;;;;;18.89;55.83;101605.69;5036246;28;45219;-85
2021/09/12 01:23:35;;;;;;;;;17.50;14.00;;;;;18.87;56.21;101599.50;5036858;28;45525;-85
2021/09/12 01:26:01;;;;;;;;;17.00;16.00;;;;;18.85;56.64;101607.31;5036080;28;45322;-84
2021/09/12 01:28:26;;;;;;;;;16.75;14.00;;;;;18.83;56.51;101603.81;5036642;28;45371;-86
2021/09/12 01:30:52;;;;;;;;;19.50;17.50;;;;;18.77;56.77;101598.41;5043075;28;45314;-85
2021/09/12 01:33:18;;;;;;;;;20.00;17.00;;;;;18.72;56.87;101594.81;5044304;28;45239;-84
2021/09/12 01:35:43;;;;;;;;;16.50;13.75;;;;;18.69;56.69;101599.97;5039442;28;46087;-84
2021/09/12 01:38:09;;;;;;;;;17.00;14.00;;;;;18.64;56.75;101601.56;5036566;28;45510;-84
2021/09/12 01:40:35;;;;;;;;;17.00;16.00;;;;;18.62;57.63;101605.91;5036694;28;45301;-84
2021/09/12 01:43:01;;;;;;;;;16.25;14.50;;;;;18.59;57.31;101597.97;5036631;28;45568;-83
2021/09/12 01:45:27;;;;;;;;;13.00;12.25;;;;;18.53;57.34;101602.19;5035926;28;45827;-83
2021/09/12 01:47:59;;;;;;;;;16.00;16.00;;;;;18.51;57.57;101598.69;5035776;28;45428;-84
2021/09/12 01:50:25;;;;;;;;;14.75;12.00;;;;;18.45;57.37;101593.25;5035973;28;45320;-83
2021/09/12 01:52:51;;;;;;;;;17.25;14.25;;;;;18.45;57.50;101597.63;5051658;28;45251;-84
2021/09/12 01:55:16;;;;;;;;;16.00;14.25;;;;;18.43;57.79;101599.31;5035977;28;45313;-83
2021/09/12 01:57:42;;;;;;;;;14.25;14.25;;;;;18.38;57.82;101596.59;5042987;28;45189;-82
2021/09/12 02:00:08;;;;;;;;;16.50;15.50;;;;;18.35;57.58;101596.50;5041358;28;45215;-84
2021/09/12 02:02:34;;;;;;;;;15.00;14.75;;;;;18.31;57.81;101598.16;5037516;28;45457;-84
2021/09/12 02:05:00;;;;;;;;;17.50;15.00;;;;;18.30;57.62;101598.13;5035490;28;45428;-84
2021/09/12 02:07:26;;;;;;;;;12.00;11.00;;;;;18.28;57.70;101595.47;5035858;28;45392;-82
2021/09/12 02:09:51;;;;;;;;;12.00;12.00;;;;;18.27;57.90;101600.66;5034441;28;45316;-83
2021/09/12 02:12:17;;;;;;;;;11.50;9.50;;;;;18.22;57.59;101596.19;5036065;28;45605;-84
2021/09/12 02:14:42;;;;;;;;;12.00;10.00;;;;;18.19;57.90;101597.84;5035318;28;45981;-83
2021/09/12 02:17:08;;;;;;;;;12.50;11.25;;;;;18.16;57.94;101606.53;5035901;28;45425;-84
2021/09/12 02:19:33;;;;;;;;;11.25;10.25;;;;;18.13;58.14;101605.56;5036109;28;45408;-84
2021/09/12 02:21:59;;;;;;;;;11.25;11.00;;;;;18.10;58.09;101607.25;5035204;28;45434;-83
2021/09/12 02:24:25;;;;;;;;;10.25;10.25;;;;;18.09;57.83;101613.34;5036972;28;46273;-83
2021/09/12 02:26:50;;;;;;;;;10.75;10.75;;;;;18.06;58.35;101613.25;5043753;28;45326;-84
2021/09/12 02:29:16;;;;;;;;;13.50;11.00;;;;;18.02;57.88;101610.50;5043428;28;45352;-84
2021/09/12 02:31:41;;;;;;;;;9.25;9.25;;;;;18.01;58.07;101613.97;5040985;28;45554;-81
2021/09/12 02:34:07;;;;;;;;;9.50;9.50;;;;;17.99;58.05;101610.41;5038984;28;45239;-83
2021/09/12 02:36:33;;;;;;;;;8.25;8.25;;;;;17.92;57.99;101612.84;5039142;28;45329;-84
2021/09/12 02:38:59;;;;;;;;;9.50;8.50;;;;;17.90;58.46;101621.50;5038758;28;45336;-83
2021/09/12 02:41:24;;;;;;;;;11.25;10.75;;;;;17.87;58.13;101622.28;5039167;28;45563;-83
2021/09/12 02:43:50;;;;;;;;;9.50;9.50;;;;;17.86;58.46;101617.03;5037187;28;47583;-83
2021/09/12 02:46:15;;;;;;;;;10.75;10.75;;;;;17.85;58.25;101612.63;5038727;28;45471;-84
2021/09/12 02:48:41;;;;;;;;;12.50;11.00;;;;;17.83;58.26;101609.06;5039385;28;45370;-85
2021/09/12 02:51:07;;;;;;;;;10.25;10.25;;;;;17.83;58.44;101611.69;5039664;28;45493;-84
2021/09/12 02:53:32;;;;;;;;;10.75;10.25;;;;;17.81;58.45;101606.41;5042073;28;45941;-83
2021/09/12 02:55:58;;;;;;;;;10.75;10.00;;;;;17.83;58.65;101602.13;5045313;28;45362;-84
2021/09/12 02:58:23;;;;;;;;;10.75;9.75;;;;;17.84;58.65;101609.13;5044120;28;45308;-84
2021/09/12 03:00:49;;;;;;;;;16.25;12.75;;;;;17.82;58.44;101607.31;5038681;28;45322;-85
2021/09/12 03:03:15;;;;;;;;;10.75;8.25;;;;;17.84;58.93;101617.00;5038427;28;46316;-82
2021/09/12 03:05:40;;;;;;;;;13.50;13.50;;;;;17.81;58.97;101611.66;5038919;28;45236;-84
2021/09/12 03:08:06;;;;;;;;;10.75;10.25;;;;;17.78;58.84;101607.22;5038493;28;45448;-84
2021/09/12 03:10:31;;;;;;;;;11.75;9.25;;;;;17.77;58.85;101607.16;5038853;28;45321;-85
2021/09/12 03:12:57;;;;;;;;;12.50;10.50;;;;;17.73;58.87;101603.56;5038105;28;45955;-84
2021/09/12 03:15:23;;;;;;;;;11.25;10.50;;;;;17.72;59.21;101604.41;5038298;28;45424;-85
2021/09/12 03:17:48;;;;;;;;;10.00;10.00;;;;;17.68;59.25;101602.56;5038831;28;45261;-85
2021/09/12 03:20:14;;;;;;;;;14.50;11.75;;;;;17.65;59.17;101602.47;5042484;28;45566;-83
2021/09/12 03:22:40;;;;;;;;;9.50;8.50;;;;;17.59;59.14;101600.56;5046317;28;46228;-84
2021/09/12 03:25:07;;;;;;;;;15.00;11.75;;;;;17.59;59.37;101597.09;5045216;28;45331;-85
2021/09/12 03:27:33;;;;;;;;;10.00;10.00;;;;;17.57;59.49;101593.53;5040640;28;45252;-84
2021/09/12 03:29:58;;;;;;;;;9.25;8.50;;;;;17.55;59.45;101595.22;5038545;28;45316;-84
2021/09/12 03:32:24;;;;;;;;;9.00;9.00;;;;;17.48;59.36;101594.13;5038092;28;46333;-85
2021/09/12 03:34:50;;;;;;;;;12.25;10.75;;;;;17.46;59.50;101595.81;5037521;28;45816;-85
2021/09/12 03:37:16;;;;;;;;;13.50;9.50;;;;;17.46;59.53;101599.34;5037884;28;45327;-84
2021/09/12 03:39:41;;;;;;;;;9.50;8.25;;;;;17.45;59.62;101596.66;5037762;28;45805;-80
2021/09/12 03:42:07;;;;;;;;;11.25;10.25;;;;;17.41;59.50;101598.31;5037864;28;45930;-84
2021/09/12 03:44:32;;;;;;;;;11.75;11.75;;;;;17.44;59.82;101598.41;5037899;28;45212;-84
2021/09/12 03:46:58;;;;;;;;;11.25;9.25;;;;;17.43;59.72;101603.63;5037740;28;45338;-85
2021/09/12 03:49:24;;;;;;;;;11.50;10.00;;;;;17.43;59.82;101599.25;5038518;28;45465;-85
2021/09/12 03:51:49;;;;;;;;;11.75;9.50;;;;;17.43;59.86;101603.63;5044174;28;46022;-84
2021/09/12 03:54:15;;;;;;;;;10.50;9.75;;;;;17.40;59.82;101599.16;5044412;28;45456;-84
2021/09/12 03:56:41;;;;;;;;;11.75;9.75;;;;;17.41;59.89;101600.94;5040892;28;45397;-86
2021/09/12 03:59:06;;;;;;;;;15.00;13.25;;;;;17.41;60.05;101598.31;5039350;28;45449;-84
2021/09/12 04:01:32;;;;;;;;;11.75;11.75;;;;;17.40;59.99;101596.53;5037373;28;45365;-84
2021/09/12 04:03:58;;;;;;;;;10.75;9.75;;;;;17.39;59.68;101586.91;5037549;28;45325;-84
2021/09/12 04:06:23;;;;;;;;;10.25;9.25;;;;;17.40;60.08;101590.41;5037821;28;45316;-84
2021/09/12 04:08:49;;;;;;;;;13.00;9.25;;;;;17.36;60.07;101591.16;5037509;28;45299;-84
2021/09/12 04:11:14;;;;;;;;;11.00;11.00;;;;;17.33;59.98;101590.22;5035895;28;46812;-84
2021/09/12 04:13:40;;;;;;;;;9.75;9.75;;;;;17.30;60.17;101582.31;5037633;28;45406;-84
2021/09/12 04:16:06;;;;;;;;;19.75;13.25;;;;;17.27;60.23;101587.44;5037393;28;45173;-84
2021/09/12 04:18:31;;;;;;;;;12.25;10.75;;;;;17.25;60.49;101583.00;5043135;28;46179;-84
2021/09/12 04:20:57;;;;;;;;;10.25;8.00;;;;;17.25;60.37;101588.25;5044362;28;45329;-83
2021/09/12 04:23:22;;;;;;;;;12.00;12.00;;;;;17.25;60.34;101583.00;5042328;28;45377;-84
2021/09/12 04:25:48;;;;;;;;;14.00;11.00;;;;;17.25;60.36;101577.78;5037556;28;45275;-85
2021/09/12 04:28:13;;;;;;;;;10.75;9.75;;;;;17.24;60.59;101578.63;5038120;28;45531;-85
2021/09/12 04:30:40;;;;;;;;;11.75;11.50;;;;;17.20;60.47;101572.41;5038052;28;46001;-84
2021/09/12 04:33:05;;;;;;;;;10.75;10.25;;;;;17.17;61.15;101581.03;5035947;28;45700;-85
2021/09/12 04:35:31;;;;;;;;;15.25;13.75;;;;;17.14;60.78;101578.34;5037376;28;45564;-84
2021/09/12 04:37:57;;;;;;;;;12.75;10.00;;;;;17.13;60.95;101580.91;5037387;28;45386;-83
2021/09/12 04:40:22;;;;;;;;;10.00;10.00;;;;;17.13;60.68;101583.50;5037233;28;45605;-82
2021/09/12 04:42:48;;;;;;;;;14.25;12.25;;;;;17.13;60.78;101573.94;5036902;28;45329;-83
2021/09/12 04:45:13;;;;;;;;;13.00;12.50;;;;;17.12;60.87;101586.97;5037202;28;45430;-84
2021/09/12 04:47:39;;;;;;;;;14.00;11.50;;;;;17.11;60.93;101586.09;5041883;28;45429;-84
2021/09/12 04:50:05;;;;;;;;;13.00;9.75;;;;;17.10;60.69;101584.31;5041340;28;45338;-83
2021/09/12 04:52:30;;;;;;;;;9.25;9.25;;;;;17.10;60.82;101584.31;5038923;28;45711;-83
2021/09/12 04:54:56;;;;;;;;;10.50;9.50;;;;;17.08;61.07;101588.59;5036793;28;45184;-83
2021/09/12 04:57:22;;;;;;;;;10.00;10.00;;;;;17.08;60.90;101587.72;5037563;28;45676;-83
2021/09/12 04:59:47;;;;;;;;;12.25;10.25;;;;;17.10;61.06;101588.69;5037345;28;46139;-83
2021/09/12 05:02:13;;;;;;;;;14.75;11.75;;;;;17.11;61.13;101587.84;5036618;28;45338;-82
2021/09/12 05:04:38;;;;;;;;;12.00;11.00;;;;;17.11;60.94;101590.44;5037231;28;45326;-83
2021/09/12 05:07:04;;;;;;;;;16.25;13.00;;;;;17.08;61.15;101587.72;5036554;28;45294;-83
2021/09/12 05:09:29;;;;;;;;;11.75;9.50;;;;;17.07;61.24;101589.44;5036404;28;45989;-83
2021/09/12 05:11:55;;;;;;;;;10.50;9.25;;;;;17.07;61.24;101578.97;5036956;28;45562;-83
2021/09/12 05:14:21;;;;;;;;;10.50;8.50;;;;;17.09;60.99;101597.38;5040452;28;45457;-83
2021/09/12 05:16:47;;;;;;;;;14.50;12.50;;;;;17.05;61.19;101591.16;5042240;28;45465;-83
2021/09/12 05:19:13;;;;;;;;;12.50;8.50;;;;;17.04;61.26;101588.47;5038685;28;45462;-83
2021/09/12 05:21:38;;;;;;;;;9.50;9.25;;;;;17.03;61.18;101582.38;5037609;28;45379;-83
2021/09/12 05:24:04;;;;;;;;;9.75;9.75;;;;;17.01;61.18;101587.53;5047353;28;45286;-83
2021/09/12 05:26:30;;;;;;;;;8.50;8.50;;;;;17.00;61.30;101584.88;5046307;28;45286;-81
2021/09/12 05:28:55;;;;;;;;;13.00;11.25;;;;;16.97;61.30;101580.44;5048366;28;45991;-82
2021/09/12 05:31:21;;;;;;;;;14.75;11.50;;;;;16.99;61.07;101591.84;5046474;28;45254;-83
2021/09/12 05:33:46;;;;;;;;;12.00;10.50;;;;;16.98;61.42;101597.00;5040655;28;45177;-83
2021/09/12 05:36:12;;;;;;;;;8.25;8.00;;;;;16.96;61.27;101591.75;5039498;28;46053;-83
2021/09/12 05:38:38;;;;;;;;;19.00;13.50;;;;;16.98;61.18;101602.25;5045551;28;45455;-82
2021/09/12 05:41:04;;;;;;;;;14.00;12.25;;;;;16.99;61.64;101604.03;5045547;28;45327;-83
2021/09/12 05:43:31;;;;;;;;;14.00;12.75;;;;;17.00;61.31;101597.97;5050543;28;45243;-82
2021/09/12 05:45:56;;;;;;;;;16.00;14.50;;;;;16.99;61.34;101604.03;5050106;28;45525;-82
2021/09/12 05:48:22;;;;;;;;;12.00;12.00;;;;;16.98;61.33;101597.91;5040059;28;45487;-84
2021/09/12 05:50:47;;;;;;;;;12.00;11.00;;;;;16.94;61.21;101603.00;5037633;28;45388;-84
2021/09/12 05:53:15;;;;;;;;;11.50;9.25;;;;;16.91;61.13;101602.88;5037380;28;45450;-83
2021/09/12 05:55:40;;;;;;;;;12.75;11.50;;;;;16.88;61.42;101601.06;5037517;28;45429;-83
2021/09/12 05:58:06;;;;;;;;;11.75;11.00;;;;;16.86;61.58;101605.34;5068474;28;46214;-83
2021/09/12 06:00:31;;;;;;;;;11.25;10.50;;;;;16.83;61.47;101608.75;5036277;28;45350;-83
2021/09/12 06:02:57;;;;;;;;;12.50;10.25;;;;;16.83;61.57;101600.00;5036636;28;45327;-82
2021/09/12 06:05:23;;;;;;;;;11.75;10.75;;;;;16.82;61.78;101606.06;5041616;28;45227;-83
2021/09/12 06:07:48;;;;;;;;;16.75;14.00;;;;;16.82;61.60;101609.59;5042451;28;46080;-83
2021/09/12 06:10:14;;;;;;;;;11.50;9.75;;;;;16.83;61.64;101608.75;5043342;28;45289;-83
2021/09/12 06:12:40;;;;;;;;;14.00;11.25;;;;;16.81;61.86;101607.81;5044314;28;45241;-84
2021/09/12 06:15:06;;;;;;;;;12.50;10.25;;;;;16.83;61.64;101614.00;5042701;28;45278;-83
2021/09/12 06:17:33;;;;;;;;;9.25;8.50;;;;;16.86;62.05;101614.06;5041832;28;45985;-84
2021/09/12 06:19:59;;;;;;;;;13.25;11.75;;;;;16.88;61.89;101614.13;5041000;28;45504;-83
2021/09/12 06:22:25;;;;;;;;;11.25;10.75;;;;;16.86;61.50;101616.69;5040014;28;45252;-84
2021/09/12 06:24:50;;;;;;;;;11.75;10.25;;;;;16.88;61.98;101616.75;5040114;28;45279;-83
2021/09/12 06:27:16;;;;;;;;;10.25;9.50;;;;;16.86;61.88;101618.41;5055073;28;47781;-83
2021/09/12 06:29:42;;;;;;;;;11.75;10.50;;;;;16.88;61.72;101624.59;5043481;28;45232;-83
2021/09/12 06:32:07;;;;;;;;;10.00;10.00;;;;;16.87;61.79;101623.69;5048293;28;45176;-83
2021/09/12 06:34:34;;;;;;;;;18.25;14.25;;;;;16.86;61.99;101615.81;5039717;28;45335;-84
2021/09/12 06:36:59;;;;;;;;;13.25;11.25;;;;;16.87;61.96;101618.47;5055030;28;47790;-84
2021/09/12 06:39:25;;;;;;;;;14.00;9.75;;;;;16.88;61.76;101614.13;5043628;28;45271;-83
2021/09/12 06:41:52;;;;;;;;;11.25;10.00;;;;;16.89;61.51;101615.91;5044215;28;45438;-81
2021/09/12 06:44:19;;;;;;;;;11.25;11.25;;;;;16.91;61.97;101615.94;5047000;28;45587;-83
2021/09/12 06:46:44;;;;;;;;;11.50;8.75;;;;;16.90;61.74;101606.31;5042823;28;46465;-82
2021/09/12 06:49:10;;;;;;;;;11.50;10.25;;;;;16.92;61.77;101616.00;5054927;28;45426;-81
2021/09/12 06:51:36;;;;;;;;;11.50;9.50;;;;;16.96;61.66;101612.69;5040025;28;45464;-84
2021/09/12 06:54:01;;;;;;;;;10.25;10.25;;;;;17.00;61.75;101611.03;5039525;28;45306;-81
2021/09/12 06:56:27;;;;;;;;;13.50;12.25;;;;;17.04;61.69;101606.78;5039060;28;45394;-83
2021/09/12 06:58:53;;;;;;;;;12.25;9.75;;;;;17.07;61.54;101604.28;5039209;28;45389;-81
2021/09/12 07:01:18;;;;;;;;;10.75;8.50;;;;;17.11;61.73;101608.78;5039333;28;45190;-84
2021/09/12 07:03:45;;;;;;;;;15.00;11.00;;;;;17.16;61.55;101608.06;5039770;28;45590;-83
2021/09/12 07:06:10;;;;;;;;;10.50;10.50;;;;;17.20;61.72;101606.44;5039828;28;45196;-84
2021/09/12 07:08:37;;;;;;;;;15.50;10.50;;;;;17.25;61.66;101596.97;5045707;28;45881;-82
2021/09/12 07:11:03;;;;;;;;;13.75;12.50;;;;;17.30;61.16;101610.19;5044095;28;45278;-82
2021/09/12 07:13:29;;;;;;;;;11.50;9.50;;;;;17.35;61.33;101610.31;5040066;28;45513;-82
2021/09/12 07:15:54;;;;;;;;;11.50;10.00;;;;;17.38;61.31;101608.72;5036804;28;46227;-82
2021/09/12 07:18:20;;;;;;;;;18.25;16.25;;;;;17.43;61.27;101614.09;5038270;28;45312;-82
2021/09/12 07:20:45;;;;;;;;;12.25;8.50;;;;;17.48;61.02;101609.84;5037067;28;45379;-82
2021/09/12 07:23:11;;;;;;;;;10.25;9.00;;;;;17.53;60.81;101616.13;5038226;28;45346;-81
2021/09/12 07:25:36;;;;;;;;;9.50;8.50;;;;;17.58;61.04;101617.13;5037961;28;45868;-80
2021/09/12 07:28:02;;;;;;;;;14.25;10.75;;;;;17.64;60.86;101619.03;5037696;28;45737;-80
2021/09/12 07:30:28;;;;;;;;;12.25;12.00;;;;;17.66;60.46;101609.50;5038144;28;45200;-82
2021/09/12 07:32:54;;;;;;;;;12.25;9.75;;;;;17.70;60.66;101607.84;5038147;28;45449;-80
2021/09/12 07:35:20;;;;;;;;;15.25;13.25;;;;;17.76;60.62;101613.28;5038793;28;45631;-84
2021/09/12 07:37:49;;;;;;;;;13.75;12.00;;;;;17.79;60.30;101613.34;5044810;28;45807;-81
2021/09/12 07:40:15;;;;;;;;;12.75;11.00;;;;;17.86;60.46;101609.16;5044365;28;45381;-82
2021/09/12 07:42:42;;;;;;;;;11.00;8.50;;;;;17.88;59.94;101610.97;5045809;28;45633;-84
2021/09/12 07:45:08;;;;;;;;;11.50;10.25;;;;;17.91;59.71;101611.06;5041254;28;45271;-84
2021/09/12 07:47:33;;;;;;;;;12.50;11.25;;;;;17.96;60.10;101619.03;5038911;28;45654;-84
2021/09/12 07:49:59;;;;;;;;;13.25;11.00;;;;;18.03;60.02;101622.75;5038118;28;45326;-82
2021/09/12 07:52:25;;;;;;;;;10.50;9.25;;;;;18.06;59.55;101617.63;5039594;28;45206;-84
2021/09/12 07:54:51;;;;;;;;;12.25;12.25;;;;;18.10;59.66;101615.09;5038657;28;46084;-84
2021/09/12 07:57:16;;;;;;;;;12.00;11.00;;;;;18.15;59.32;101614.31;5040405;28;45385;-82
2021/09/12 07:59:42;;;;;;;;;12.75;10.00;;;;;18.19;59.08;101616.19;5055800;28;45358;-84
2021/09/12 08:02:08;;;;;;;;;13.00;12.50;;;;;18.20;59.38;101607.50;5040583;28;45591;-84
2021/09/12 08:04:33;;;;;;;;;14.00;10.75;;;;;18.25;59.30;101609.38;5043115;28;45500;-85
2021/09/12 08:07:02;;;;;;;;;8.00;8.00;;;;;18.29;58.75;101610.34;5044210;28;45265;-84
2021/09/12 08:09:28;;;;;;;;;11.00;9.25;;;;;18.34;58.65;101605.22;5045445;28;45390;-83
2021/09/12 08:11:54;;;;;;;;;11.50;10.50;;;;;18.38;58.93;101613.19;5042651;28;45515;-85
2021/09/12 08:14:22;;;;;;;;;10.50;8.75;;;;;18.45;58.79;101613.38;5040310;28;45231;-85
2021/09/12 08:16:48;;;;;;;;;10.25;9.25;;;;;18.48;58.65;101613.41;5037677;28;45487;-83
2021/09/12 08:19:13;;;;;;;;;11.00;9.50;;;;;18.52;58.93;101616.16;5037508;28;45260;-81
2021/09/12 08:21:39;;;;;;;;;11.25;8.50;;;;;18.55;58.20;101608.38;5037010;28;45351;-83
2021/09/12 08:24:05;;;;;;;;;8.25;8.00;;;;;18.57;58.28;101613.69;5037486;28;45564;-84
2021/09/12 08:26:31;;;;;;;;;10.25;9.00;;;;;18.59;58.34;101606.72;5036848;28;45771;-81
2021/09/12 08:28:57;;;;;;;;;8.75;8.25;;;;;18.66;58.05;101618.25;5052152;28;45325;-85
2021/09/12 08:31:22;;;;;;;;;10.25;10.25;;;;;18.69;58.11;101616.56;5038401;28;45389;-82
2021/09/12 08:33:48;;;;;;;;;8.00;8.00;;;;;18.74;57.81;101616.69;5057513;28;47213;-83
2021/09/12 08:36:14;;;;;;;;;7.50;6.50;;;;;18.82;57.34;101619.50;5039263;28;45416;-80
2021/09/12 08:38:39;;;;;;;;;12.25;8.00;;;;;18.87;57.46;101618.75;5038668;28;45313;-81
2021/09/12 08:41:06;;;;;;;;;7.00;7.00;;;;;18.93;56.99;101610.19;5037833;28;45212;-84
2021/09/12 08:43:33;;;;;;;;;7.00;6.75;;;;;19.00;57.20;101622.59;5036822;28;46004;-85
2021/09/12 08:45:59;;;;;;;;;11.00;8.25;;;;;19.05;56.56;101612.22;5037001;28;45940;-84
2021/09/12 08:48:25;;;;;;;;;14.25;10.75;;;;;19.11;56.55;101609.72;5037537;28;45284;-84
2021/09/12 08:50:51;;;;;;;;;11.75;9.25;;;;;19.16;56.57;101617.69;5036786;28;45501;-83
2021/09/12 08:53:16;;;;;;;;;5.25;5.25;;;;;19.18;56.03;101608.09;5036659;28;45378;-82
2021/09/12 08:55:42;;;;;;;;;10.50;6.50;;;;;19.25;56.10;101617.00;5035246;28;45401;-85
2021/09/12 08:58:08;;;;;;;;;7.75;6.25;;;;;19.28;55.62;101614.44;5036323;28;45468;-84
2021/09/12 09:00:33;;;;;;;;;9.00;8.50;;;;;19.30;55.48;101612.72;5040640;28;45251;-85
2021/09/12 09:03:00;;;;;;;;;8.50;8.50;;;;;19.34;55.74;101617.22;5042991;28;46215;-84
2021/09/12 09:05:37;;;;;;;;;7.25;6.25;;;;;19.35;55.42;101616.34;5041684;28;45636;-84
2021/09/12 09:08:11;;;;;;;;;9.50;6.75;;;;;19.38;55.18;101610.28;5038912;28;45511;-85
2021/09/12 09:10:48;;;;;;;;;5.75;5.00;;;;;19.41;55.72;101611.22;5054877;28;45813;-83
2021/09/12 09:13:38;;;;;;;;;5.50;5.50;;;;;19.44;55.49;101603.41;5037718;28;45483;-84
2021/09/12 09:16:09;;;;;;;;;6.50;6.50;;;;;19.48;55.18;101613.16;5038086;28;45339;-84
2021/09/12 09:18:39;;;;;;;;;8.25;7.00;;;;;19.49;55.46;101609.63;5036486;28;45417;-84
2021/09/12 09:21:27;;;;;;;;;7.25;6.25;;;;;19.53;54.88;101615.88;5036005;28;45597;-84
2021/09/12 09:24:22;;;;;;;;;6.00;6.00;;;;;19.56;53.05;101615.03;5036019;28;45853;-82
2021/09/12 09:27:00;;;;;;;;;7.50;4.00;;;;;19.60;52.75;101608.97;5037189;28;45816;-84
2021/09/12 09:29:28;;;;;;;;;5.75;5.75;;;;;19.62;52.49;101610.78;5040563;28;45195;-84
2021/09/12 09:32:01;;;;;;;;;3.00;3.00;;;;;19.65;51.98;101613.47;5057594;28;45350;-85
2021/09/12 09:34:27;;;;;;;;;4.00;4.00;;;;;19.69;52.16;101608.28;5036790;28;46419;-86
2021/09/12 09:37:16;;;;;;;;;4.25;2.75;;;;;19.72;52.67;101617.09;5036520;28;45170;-82
2021/09/12 09:39:47;;;;;;;;;4.50;2.75;;;;;19.74;52.02;101612.78;5035497;28;45400;-85
2021/09/12 09:42:32;;;;;;;;;3.00;3.00;;;;;19.76;52.67;101611.06;5036554;28;45270;-86
2021/09/12 09:45:07;;;;;;;;;4.00;3.25;;;;;19.77;52.40;101606.69;5035705;28;46104;-84
2021/09/12 09:47:35;;;;;;;;;6.50;5.50;;;;;19.77;52.51;101609.31;5037175;28;45192;-85
2021/09/12 09:50:12;;;;;;;;;4.25;4.25;;;;;19.78;52.52;101606.72;5038136;28;45329;-87
2021/09/12 09:52:39;;;;;;;;;3.25;3.00;;;;;19.78;52.48;101611.97;5040658;28;45432;-84
2021/09/12 09:55:06;;;;;;;;;2.00;2.00;;;;;19.78;51.13;101609.34;5041892;28;45507;-82
2021/09/12 09:57:33;;;;;;;;;2.25;2.25;;;;;19.77;51.47;101604.94;5045345;28;45141;-83
2021/09/12 10:00:00;;;;;;;;;2.75;2.75;;;;;19.79;51.37;101602.34;5042631;28;45316;-84
2021/09/12 10:02:27;;;;;;;;;1.25;1.25;;;;;19.79;51.27;101598.00;5039102;28;45478;-82
2021/09/12 10:04:53;;;;;;;;;5.25;4.50;;;;;19.82;51.44;101597.16;5052653;28;45759;-83
2021/09/12 10:07:22;;;;;;;;;3.50;3.00;;;;;19.84;51.59;101594.53;5036363;28;45338;-85
2021/09/12 10:09:48;;;;;;;;;6.50;5.50;;;;;19.85;52.18;101597.22;5044243;28;45166;-85
2021/09/12 10:12:15;;;;;;;;;4.25;3.00;;;;;19.87;52.17;101586.75;5051415;28;45189;-85
2021/09/12 10:14:40;;;;;;;;;4.00;4.00;;;;;19.89;51.77;101590.31;5041806;28;45275;-84
2021/09/12 10:17:14;;;;;;;;;4.00;4.00;;;;;19.90;51.85;101587.69;5041322;28;45313;-85
2021/09/12 10:19:52;;;;;;;;;5.00;5.00;;;;;19.91;52.00;101583.34;5039450;28;45338;-84
2021/09/12 10:22:31;;;;;;;;;6.50;6.00;;;;;19.87;52.22;101579.75;5040965;28;45382;-85
2021/09/12 10:25:02;;;;;;;;;3.75;3.25;;;;;19.93;52.20;101587.78;5059411;28;45601;-84
2021/09/12 10:28:05;;;;;;;;;5.00;4.25;;;;;19.93;51.65;101578.97;5042012;28;45298;-85
2021/09/12 10:30:40;;;;;;;;;3.00;3.00;;;;;19.94;51.67;101586.91;5004965;28;45389;-82
2021/09/12 10:33:09;;;;;;;;;5.25;4.00;;;;;19.97;51.84;101579.94;5035646;28;45608;-83
2021/09/12 10:35:49;;;;;;;;;5.50;5.00;;;;;19.99;51.46;101580.84;5034443;28;47387;-86
2021/09/12 10:38:31;;;;;;;;;3.75;3.00;;;;;20.02;51.81;101573.00;5035885;28;45556;-84
2021/09/12 10:40:56;;;;;;;;;2.75;2.75;;;;;20.06;51.74;101573.09;5035256;28;45347;-86
2021/09/12 10:43:24;;;;;;;;;5.00;3.25;;;;;20.12;51.02;101574.06;5035310;28;45279;-80
2021/09/12 10:46:02;;;;;;;;;5.00;4.75;;;;;20.14;51.52;101557.47;5036708;28;45483;-84
2021/09/12 10:48:32;;;;;;;;;5.00;4.00;;;;;20.17;51.11;101562.78;5051989;28;45760;-86
2021/09/12 10:51:02;;;;;;;;;5.25;5.25;;;;;20.24;50.83;101566.41;5038376;28;45338;-84
2021/09/12 10:53:59;;;;;;;;;5.25;4.75;;;;;20.31;51.18;101560.38;5045474;28;45354;-85
2021/09/12 10:56:25;;;;;;;;;8.50;7.50;;;;;20.37;51.12;101570.13;5044965;28;46183;-84
2021/09/12 10:58:59;;;;;;;;;5.25;4.75;;;;;20.43;51.17;101564.94;5042795;28;45373;-86
2021/09/12 11:01:32;;;;;;;;;4.00;4.00;;;;;20.50;51.17;101563.28;5040209;28;45347;-84
2021/09/12 11:04:00;;;;;;;;;4.50;4.50;;;;;20.56;51.36;101568.69;5039599;28;45374;-85
2021/09/12 11:06:42;;;;;;;;;8.00;7.00;;;;;20.64;50.55;101564.41;5039358;28;46246;-83
2021/09/12 11:09:22;;;;;;;;;5.75;4.00;;;;;20.73;50.42;101559.28;5038551;28;45389;-84
2021/09/12 11:11:54;;;;;;;;;4.00;4.00;;;;;20.76;49.71;101558.47;5037919;28;45370;-83
2021/09/12 11:14:20;;;;;;;;;2.00;2.00;;;;;20.80;49.44;101562.03;5039729;28;45307;-83